sensor_id;sensor_type;location;lat;lon;timestamp;pressure;altitude;pressure_sealevel;temperature
18474;BMP180;30265;52.408;13.500;2023-07-13T00:09:54;101643.00;;;23.80
18474;BMP180;30265;52.408;13.500;2023-07-13T00:20:21;101643.00;;;23.90
18474;BMP180;30265;52.408;13.500;2023-07-13T00:30:44;101661.00;;;23.60
18474;BMP180;30265;52.408;13.500;2023-07-13T00:41:07;101659.00;;;23.50
18474;BMP180;30265;52.408;13.500;2023-07-13T00:51:35;101650.00;;;23.50
18474;BMP180;30265;52.408;13.500;2023-07-13T01:01:58;101673.00;;;23.30
18474;BMP180;30265;52.408;13.500;2023-07-13T01:12:22;101677.00;;;22.90
18474;BMP180;30265;52.408;13.500;2023-07-13T01:22:45;101676.00;;;22.90
18474;BMP180;30265;52.408;13.500;2023-07-13T01:33:08;101676.00;;;22.80
18474;BMP180;30265;52.408;13.500;2023-07-13T01:43:33;101671.00;;;22.70
18474;BMP180;30265;52.408;13.500;2023-07-13T01:53:55;101663.00;;;23.00
18474;BMP180;30265;52.408;13.500;2023-07-13T02:04:18;101665.00;;;22.60
18474;BMP180;30265;52.408;13.500;2023-07-13T02:14:39;101661.00;;;22.70
18474;BMP180;30265;52.408;13.500;2023-07-13T02:25:03;101647.00;;;22.50
18474;BMP180;30265;52.408;13.500;2023-07-13T02:35:26;101651.00;;;22.60
18474;BMP180;30265;52.408;13.500;2023-07-13T02:45:49;101664.00;;;22.00
18474;BMP180;30265;52.408;13.500;2023-07-13T02:56:11;101682.00;;;21.90
18474;BMP180;30265;52.408;13.500;2023-07-13T03:06:38;101699.00;;;21.80
18474;BMP180;30265;52.408;13.500;2023-07-13T03:17:02;101688.00;;;21.80
18474;BMP180;30265;52.408;13.500;2023-07-13T03:27:28;101684.00;;;22.10
18474;BMP180;30265;52.408;13.500;2023-07-13T03:37:51;101680.00;;;22.60
18474;BMP180;30265;52.408;13.500;2023-07-13T03:48:15;101690.00;;;22.80
18474;BMP180;30265;52.408;13.500;2023-07-13T03:58:39;101686.00;;;22.90
18474;BMP180;30265;52.408;13.500;2023-07-13T04:09:09;101682.00;;;23.70
18474;BMP180;30265;52.408;13.500;2023-07-13T04:19:31;101692.00;;;24.30
18474;BMP180;30265;52.408;13.500;2023-07-13T04:29:54;101682.00;;;24.70
18474;BMP180;30265;52.408;13.500;2023-07-13T04:40:16;101684.00;;;24.90
18474;BMP180;30265;52.408;13.500;2023-07-13T04:50:40;101699.00;;;25.20
18474;BMP180;30265;52.408;13.500;2023-07-13T05:01:02;101717.00;;;24.70
18474;BMP180;30265;52.408;13.500;2023-07-13T05:11:26;101711.00;;;25.40
18474;BMP180;30265;52.408;13.500;2023-07-13T05:21:48;101711.00;;;25.60
18474;BMP180;30265;52.408;13.500;2023-07-13T05:32:11;101696.00;;;26.30
18474;BMP180;30265;52.408;13.500;2023-07-13T05:42:35;101708.00;;;26.60
18474;BMP180;30265;52.408;13.500;2023-07-13T05:52:58;101704.00;;;27.00
18474;BMP180;30265;52.408;13.500;2023-07-13T06:03:22;101691.00;;;27.70
18474;BMP180;30265;52.408;13.500;2023-07-13T06:13:54;101696.00;;;27.60
18474;BMP180;30265;52.408;13.500;2023-07-13T06:24:21;101689.00;;;27.80
18474;BMP180;30265;52.408;13.500;2023-07-13T06:34:45;101688.00;;;27.80
18474;BMP180;30265;52.408;13.500;2023-07-13T06:45:22;101680.00;;;28.30
18474;BMP180;30265;52.408;13.500;2023-07-13T06:56:19;101691.00;;;28.90
18474;BMP180;30265;52.408;13.500;2023-07-13T07:07:34;101685.00;;;28.40
18474;BMP180;30265;52.408;13.500;2023-07-13T07:18:28;101688.00;;;29.00
18474;BMP180;30265;52.408;13.500;2023-07-13T07:28:49;101680.00;;;29.40
18474;BMP180;30265;52.408;13.500;2023-07-13T07:39:23;101686.00;;;29.60
18474;BMP180;30265;52.408;13.500;2023-07-13T07:49:47;101683.00;;;29.40
18474;BMP180;30265;52.408;13.500;2023-07-13T08:00:14;101693.00;;;30.20
18474;BMP180;30265;52.408;13.500;2023-07-13T08:10:45;101680.00;;;30.60
18474;BMP180;30265;52.408;13.500;2023-07-13T08:21:14;101696.00;;;30.40
18474;BMP180;30265;52.408;13.500;2023-07-13T08:31:37;101711.00;;;29.30
18474;BMP180;30265;52.408;13.500;2023-07-13T08:42:06;101682.00;;;30.80
18474;BMP180;30265;52.408;13.500;2023-07-13T08:52:36;101700.00;;;29.30
18474;BMP180;30265;52.408;13.500;2023-07-13T09:03:01;101704.00;;;30.50
18474;BMP180;30265;52.408;13.500;2023-07-13T09:13:28;101701.00;;;30.60
18474;BMP180;30265;52.408;13.500;2023-07-13T09:24:06;101696.00;;;30.50
18474;BMP180;30265;52.408;13.500;2023-07-13T09:34:42;101675.00;;;31.20
18474;BMP180;30265;52.408;13.500;2023-07-13T09:45:11;101733.00;;;29.70
18474;BMP180;30265;52.408;13.500;2023-07-13T09:55:46;101733.00;;;29.70
18474;BMP180;30265;52.408;13.500;2023-07-13T10:06:16;101735.00;;;29.60
18474;BMP180;30265;52.408;13.500;2023-07-13T10:16:38;101710.00;;;30.70
18474;BMP180;30265;52.408;13.500;2023-07-13T10:27:12;101723.00;;;30.50
18474;BMP180;30265;52.408;13.500;2023-07-13T10:37:40;101743.00;;;30.30
18474;BMP180;30265;52.408;13.500;2023-07-13T10:48:07;101718.00;;;31.50
18474;BMP180;30265;52.408;13.500;2023-07-13T10:58:40;101729.00;;;30.80
18474;BMP180;30265;52.408;13.500;2023-07-13T11:09:33;101709.00;;;30.40
18474;BMP180;30265;52.408;13.500;2023-07-13T11:20:09;101694.00;;;31.50
18474;BMP180;30265;52.408;13.500;2023-07-13T11:30:36;101694.00;;;31.90
18474;BMP180;30265;52.408;13.500;2023-07-13T11:41:04;101685.00;;;32.50
18474;BMP180;30265;52.408;13.500;2023-07-13T11:51:38;101673.00;;;32.20
18474;BMP180;30265;52.408;13.500;2023-07-13T12:02:01;101697.00;;;32.40
18474;BMP180;30265;52.408;13.500;2023-07-13T12:12:31;101656.00;;;32.50
18474;BMP180;30265;52.408;13.500;2023-07-13T12:22:54;101691.00;;;31.40
18474;BMP180;30265;52.408;13.500;2023-07-13T12:33:19;101667.00;;;31.50
18474;BMP180;30265;52.408;13.500;2023-07-13T12:43:41;101644.00;;;33.40
18474;BMP180;30265;52.408;13.500;2023-07-13T12:54:13;101668.00;;;31.80
18474;BMP180;30265;52.408;13.500;2023-07-13T13:04:39;101673.00;;;32.30
18474;BMP180;30265;52.408;13.500;2023-07-13T13:15:07;101676.00;;;31.70
18474;BMP180;30265;52.408;13.500;2023-07-13T13:25:28;101665.00;;;32.50
18474;BMP180;30265;52.408;13.500;2023-07-13T13:35:52;101669.00;;;32.20
18474;BMP180;30265;52.408;13.500;2023-07-13T13:46:18;101687.00;;;31.50
18474;BMP180;30265;52.408;13.500;2023-07-13T13:56:44;101660.00;;;33.40
18474;BMP180;30265;52.408;13.500;2023-07-13T14:07:07;101660.00;;;32.90
18474;BMP180;30265;52.408;13.500;2023-07-13T14:17:37;101707.00;;;31.00
18474;BMP180;30265;52.408;13.500;2023-07-13T14:28:19;101684.00;;;32.80
18474;BMP180;30265;52.408;13.500;2023-07-13T14:38:55;101682.00;;;31.90
18474;BMP180;30265;52.408;13.500;2023-07-13T14:49:24;101691.00;;;31.70
18474;BMP180;30265;52.408;13.500;2023-07-13T14:59:48;101697.00;;;31.40
18474;BMP180;30265;52.408;13.500;2023-07-13T15:10:15;101684.00;;;31.90
18474;BMP180;30265;52.408;13.500;2023-07-13T15:20:45;101690.00;;;31.60
18474;BMP180;30265;52.408;13.500;2023-07-13T15:31:23;101664.00;;;32.10
18474;BMP180;30265;52.408;13.500;2023-07-13T15:41:57;101685.00;;;32.30
18474;BMP180;30265;52.408;13.500;2023-07-13T15:52:23;101680.00;;;32.30
18474;BMP180;30265;52.408;13.500;2023-07-13T16:02:51;101677.00;;;31.80
18474;BMP180;30265;52.408;13.500;2023-07-13T16:13:16;101679.00;;;31.90
18474;BMP180;30265;52.408;13.500;2023-07-13T16:23:41;101679.00;;;32.20
18474;BMP180;30265;52.408;13.500;2023-07-13T16:34:25;101692.00;;;31.90
18474;BMP180;30265;52.408;13.500;2023-07-13T16:44:49;101690.00;;;32.40
18474;BMP180;30265;52.408;13.500;2023-07-13T16:55:13;101711.00;;;30.80
18474;BMP180;30265;52.408;13.500;2023-07-13T17:05:40;101739.00;;;30.80
18474;BMP180;30265;52.408;13.500;2023-07-13T17:16:05;101755.00;;;30.50
18474;BMP180;30265;52.408;13.500;2023-07-13T17:26:31;101765.00;;;30.40
18474;BMP180;30265;52.408;13.500;2023-07-13T17:36:55;101904.00;;;26.70
18474;BMP180;30265;52.408;13.500;2023-07-13T17:47:25;101916.00;;;26.30
18474;BMP180;30265;52.408;13.500;2023-07-13T17:57:47;101991.00;;;25.70
18474;BMP180;30265;52.408;13.500;2023-07-13T18:08:21;101954.00;;;25.80
18474;BMP180;30265;52.408;13.500;2023-07-13T18:18:43;101949.00;;;26.00
18474;BMP180;30265;52.408;13.500;2023-07-13T18:29:07;101933.00;;;26.10
18474;BMP180;30265;52.408;13.500;2023-07-13T18:39:29;101948.00;;;26.30
18474;BMP180;30265;52.408;13.500;2023-07-13T18:49:52;101947.00;;;26.40
18474;BMP180;30265;52.408;13.500;2023-07-13T19:00:17;101953.00;;;26.20
18474;BMP180;30265;52.408;13.500;2023-07-13T19:10:44;101962.00;;;26.00
18474;BMP180;30265;52.408;13.500;2023-07-13T19:21:09;101972.00;;;25.80
18474;BMP180;30265;52.408;13.500;2023-07-13T19:31:36;101986.00;;;25.50
18474;BMP180;30265;52.408;13.500;2023-07-13T19:42:02;102018.00;;;25.30
18474;BMP180;30265;52.408;13.500;2023-07-13T19:52:27;102027.00;;;25.00
18474;BMP180;30265;52.408;13.500;2023-07-13T20:02:51;102037.00;;;24.70
18474;BMP180;30265;52.408;13.500;2023-07-13T20:13:18;102053.00;;;24.70
18474;BMP180;30265;52.408;13.500;2023-07-13T20:23:41;102066.00;;;24.70
18474;BMP180;30265;52.408;13.500;2023-07-13T20:34:16;102090.00;;;24.40
18474;BMP180;30265;52.408;13.500;2023-07-13T20:44:39;102109.00;;;24.40
18474;BMP180;30265;52.408;13.500;2023-07-13T20:55:12;102098.00;;;24.40
18474;BMP180;30265;52.408;13.500;2023-07-13T21:05:35;102105.00;;;24.30
18474;BMP180;30265;52.408;13.500;2023-07-13T21:16:01;102106.00;;;24.30
18474;BMP180;30265;52.408;13.500;2023-07-13T21:26:30;102115.00;;;24.00
18474;BMP180;30265;52.408;13.500;2023-07-13T21:36:54;102106.00;;;23.90
18474;BMP180;30265;52.408;13.500;2023-07-13T21:47:19;102125.00;;;23.90
18474;BMP180;30265;52.408;13.500;2023-07-13T21:57:48;102119.00;;;23.80
18474;BMP180;30265;52.408;13.500;2023-07-13T22:08:10;102131.00;;;23.40
18474;BMP180;30265;52.408;13.500;2023-07-13T22:18:34;102140.00;;;23.00
18474;BMP180;30265;52.408;13.500;2023-07-13T22:29:03;102139.00;;;22.90
18474;BMP180;30265;52.408;13.500;2023-07-13T22:39:31;102139.00;;;22.80
18474;BMP180;30265;52.408;13.500;2023-07-13T22:49:53;102138.00;;;22.60
18474;BMP180;30265;52.408;13.500;2023-07-13T23:00:18;102133.00;;;22.60
18474;BMP180;30265;52.408;13.500;2023-07-13T23:10:40;102131.00;;;22.50
18474;BMP180;30265;52.408;13.500;2023-07-13T23:21:05;102161.00;;;22.40
18474;BMP180;30265;52.408;13.500;2023-07-13T23:31:30;102153.00;;;22.20
18474;BMP180;30265;52.408;13.500;2023-07-13T23:41:53;102164.00;;;22.10
18474;BMP180;30265;52.408;13.500;2023-07-13T23:52:16;102157.00;;;22.10
